sensor_id;sensor_type;location;lat;lon;timestamp;P1;durP1;ratioP1;P2;durP2;ratioP2
13807;SDS011;40769;51.512;5.494;2022-11-04T00:01:45;8.18;;;7.57;;
13807;SDS011;40769;51.512;5.494;2022-11-04T00:04:12;6.53;;;5.93;;
13807;SDS011;40769;51.512;5.494;2022-11-04T00:06:39;4.35;;;4.05;;
13807;SDS011;40769;51.512;5.494;2022-11-04T00:09:06;2.85;;;2.65;;
13807;SDS011;40769;51.512;5.494;2022-11-04T00:11:34;2.90;;;2.70;;
13807;SDS011;40769;51.512;5.494;2022-11-04T00:14:19;2.80;;;2.60;;
13807;SDS011;40769;51.512;5.494;2022-11-04T00:16:45;1.83;;;1.73;;
13807;SDS011;40769;51.512;5.494;2022-11-04T00:19:29;2.03;;;1.92;;
13807;SDS011;40769;51.512;5.494;2022-11-04T00:22:17;2.42;;;2.22;;
13807;SDS011;40769;51.512;5.494;2022-11-04T00:25:02;4.25;;;3.88;;
13807;SDS011;40769;51.512;5.494;2022-11-04T00:27:47;5.28;;;4.88;;
13807;SDS011;40769;51.512;5.494;2022-11-04T00:30:31;6.03;;;5.53;;
13807;SDS011;40769;51.512;5.494;2022-11-04T00:32:56;5.53;;;5.13;;
13807;SDS011;40769;51.512;5.494;2022-11-04T00:35:46;6.13;;;5.63;;
13807;SDS011;40769;51.512;5.494;2022-11-04T00:38:13;6.10;;;5.68;;
13807;SDS011;40769;51.512;5.494;2022-11-04T00:40:38;6.10;;;5.63;;
13807;SDS011;40769;51.512;5.494;2022-11-04T00:43:04;6.07;;;5.60;;
13807;SDS011;40769;51.512;5.494;2022-11-04T00:45:29;4.78;;;4.47;;
13807;SDS011;40769;51.512;5.494;2022-11-04T00:47:55;5.28;;;4.88;;
13807;SDS011;40769;51.512;5.494;2022-11-04T00:50:20;4.68;;;4.38;;
13807;SDS011;40769;51.512;5.494;2022-11-04T00:52:46;5.38;;;4.88;;
13807;SDS011;40769;51.512;5.494;2022-11-04T00:55:11;5.43;;;5.03;;
13807;SDS011;40769;51.512;5.494;2022-11-04T00:57:37;6.05;;;5.53;;
13807;SDS011;40769;51.512;5.494;2022-11-04T01:00:03;5.43;;;5.03;;
13807;SDS011;40769;51.512;5.494;2022-11-04T01:02:29;6.28;;;5.78;;
13807;SDS011;40769;51.512;5.494;2022-11-04T01:04:54;7.38;;;6.68;;
13807;SDS011;40769;51.512;5.494;2022-11-04T01:07:20;6.35;;;5.85;;
13807;SDS011;40769;51.512;5.494;2022-11-04T01:09:47;6.45;;;5.90;;
13807;SDS011;40769;51.512;5.494;2022-11-04T01:12:13;4.82;;;4.43;;
13807;SDS011;40769;51.512;5.494;2022-11-04T01:14:38;6.97;;;5.53;;
13807;SDS011;40769;51.512;5.494;2022-11-04T01:17:04;5.85;;;5.35;;
13807;SDS011;40769;51.512;5.494;2022-11-04T01:19:30;6.82;;;6.22;;
13807;SDS011;40769;51.512;5.494;2022-11-04T01:21:55;6.85;;;6.30;;
13807;SDS011;40769;51.512;5.494;2022-11-04T01:24:21;7.45;;;6.85;;
13807;SDS011;40769;51.512;5.494;2022-11-04T01:26:46;7.32;;;6.72;;
13807;SDS011;40769;51.512;5.494;2022-11-04T01:29:12;6.05;;;5.55;;
13807;SDS011;40769;51.512;5.494;2022-11-04T01:31:38;7.32;;;6.18;;
13807;SDS011;40769;51.512;5.494;2022-11-04T01:34:03;7.22;;;6.63;;
13807;SDS011;40769;51.512;5.494;2022-11-04T01:36:29;7.43;;;6.72;;
13807;SDS011;40769;51.512;5.494;2022-11-04T01:38:54;7.28;;;6.63;;
13807;SDS011;40769;51.512;5.494;2022-11-04T01:41:22;5.90;;;5.40;;
13807;SDS011;40769;51.512;5.494;2022-11-04T01:44:00;5.63;;;5.13;;
13807;SDS011;40769;51.512;5.494;2022-11-04T01:46:49;6.43;;;5.18;;
13807;SDS011;40769;51.512;5.494;2022-11-04T01:52:20;5.85;;;4.85;;
13807;SDS011;40769;51.512;5.494;2022-11-04T01:54:48;4.82;;;4.43;;
13807;SDS011;40769;51.512;5.494;2022-11-04T01:57:17;4.78;;;4.38;;
13807;SDS011;40769;51.512;5.494;2022-11-04T01:59:47;4.45;;;4.05;;
13807;SDS011;40769;51.512;5.494;2022-11-04T02:02:13;4.50;;;4.05;;
13807;SDS011;40769;51.512;5.494;2022-11-04T02:04:39;3.80;;;3.50;;
13807;SDS011;40769;51.512;5.494;2022-11-04T02:07:07;4.95;;;4.22;;
13807;SDS011;40769;51.512;5.494;2022-11-04T02:09:34;4.70;;;3.80;;
13807;SDS011;40769;51.512;5.494;2022-11-04T02:12:01;4.28;;;3.78;;
13807;SDS011;40769;51.512;5.494;2022-11-04T02:14:47;4.55;;;3.08;;
13807;SDS011;40769;51.512;5.494;2022-11-04T02:30:30;2.97;;;2.35;;
13807;SDS011;40769;51.512;5.494;2022-11-04T02:46:48;2.58;;;1.60;;
13807;SDS011;40769;51.512;5.494;2022-11-04T02:49:19;2.38;;;1.83;;
13807;SDS011;40769;51.512;5.494;2022-11-04T02:54:24;1.65;;;1.30;;
13807;SDS011;40769;51.512;5.494;2022-11-04T02:56:59;2.13;;;1.52;;
13807;SDS011;40769;51.512;5.494;2022-11-04T03:01:59;2.95;;;1.45;;
13807;SDS011;40769;51.512;5.494;2022-11-04T03:04:31;2.03;;;1.60;;
13807;SDS011;40769;51.512;5.494;2022-11-04T03:07:02;2.85;;;1.60;;
13807;SDS011;40769;51.512;5.494;2022-11-04T03:09:31;3.63;;;1.65;;
13807;SDS011;40769;51.512;5.494;2022-11-04T03:12:01;2.47;;;1.60;;
13807;SDS011;40769;51.512;5.494;2022-11-04T03:14:36;1.92;;;1.40;;
13807;SDS011;40769;51.512;5.494;2022-11-04T03:17:19;1.70;;;1.42;;
13807;SDS011;40769;51.512;5.494;2022-11-04T03:19:57;1.25;;;1.15;;
13807;SDS011;40769;51.512;5.494;2022-11-04T03:22:32;3.63;;;1.63;;
13807;SDS011;40769;51.512;5.494;2022-11-04T03:25:01;2.55;;;1.60;;
13807;SDS011;40769;51.512;5.494;2022-11-04T03:27:34;2.20;;;1.65;;
13807;SDS011;40769;51.512;5.494;2022-11-04T03:30:16;1.95;;;1.52;;
13807;SDS011;40769;51.512;5.494;2022-11-04T03:35:29;2.88;;;2.00;;
13807;SDS011;40769;51.512;5.494;2022-11-04T03:37:56;3.88;;;2.40;;
13807;SDS011;40769;51.512;5.494;2022-11-04T03:40:22;5.65;;;2.65;;
13807;SDS011;40769;51.512;5.494;2022-11-04T03:42:51;2.58;;;1.88;;
13807;SDS011;40769;51.512;5.494;2022-11-04T03:45:22;2.75;;;2.20;;
13807;SDS011;40769;51.512;5.494;2022-11-04T03:47:48;3.17;;;2.50;;
13807;SDS011;40769;51.512;5.494;2022-11-04T03:50:31;3.67;;;2.60;;
13807;SDS011;40769;51.512;5.494;2022-11-04T03:52:59;3.50;;;2.60;;
13807;SDS011;40769;51.512;5.494;2022-11-04T03:55:38;3.40;;;2.70;;
13807;SDS011;40769;51.512;5.494;2022-11-04T04:04:47;2.70;;;2.22;;
13807;SDS011;40769;51.512;5.494;2022-11-04T04:07:18;4.97;;;3.35;;
13807;SDS011;40769;51.512;5.494;2022-11-04T04:10:15;4.80;;;4.35;;
13807;SDS011;40769;51.512;5.494;2022-11-04T04:13:01;5.63;;;3.03;;
13807;SDS011;40769;51.512;5.494;2022-11-04T04:15:46;3.13;;;2.70;;
13807;SDS011;40769;51.512;5.494;2022-11-04T04:18:18;3.33;;;2.60;;
13807;SDS011;40769;51.512;5.494;2022-11-04T04:20:51;3.90;;;3.25;;
13807;SDS011;40769;51.512;5.494;2022-11-04T04:23:22;4.22;;;3.60;;
13807;SDS011;40769;51.512;5.494;2022-11-04T04:26:09;4.13;;;3.72;;
13807;SDS011;40769;51.512;5.494;2022-11-04T04:28:56;2.63;;;2.40;;
13807;SDS011;40769;51.512;5.494;2022-11-04T04:31:26;2.30;;;2.10;;
13807;SDS011;40769;51.512;5.494;2022-11-04T04:34:13;2.33;;;1.65;;
13807;SDS011;40769;51.512;5.494;2022-11-04T04:36:45;3.20;;;1.60;;
13807;SDS011;40769;51.512;5.494;2022-11-04T04:39:24;2.05;;;1.58;;
13807;SDS011;40769;51.512;5.494;2022-11-04T04:42:14;2.17;;;1.70;;
13807;SDS011;40769;51.512;5.494;2022-11-04T04:45:00;1.60;;;1.50;;
13807;SDS011;40769;51.512;5.494;2022-11-04T04:47:32;2.13;;;1.60;;
13807;SDS011;40769;51.512;5.494;2022-11-04T04:50:04;1.83;;;1.55;;
13807;SDS011;40769;51.512;5.494;2022-11-04T04:52:32;1.88;;;1.60;;
13807;SDS011;40769;51.512;5.494;2022-11-04T04:55:02;2.13;;;1.73;;
13807;SDS011;40769;51.512;5.494;2022-11-04T04:57:28;2.03;;;1.58;;
13807;SDS011;40769;51.512;5.494;2022-11-04T04:59:54;1.60;;;1.50;;
13807;SDS011;40769;51.512;5.494;2022-11-04T05:02:19;2.05;;;1.67;;
13807;SDS011;40769;51.512;5.494;2022-11-04T05:04:45;1.73;;;1.50;;
13807;SDS011;40769;51.512;5.494;2022-11-04T05:07:11;1.40;;;1.30;;
13807;SDS011;40769;51.512;5.494;2022-11-04T05:09:36;1.88;;;1.50;;
13807;SDS011;40769;51.512;5.494;2022-11-04T05:12:02;1.92;;;1.50;;
13807;SDS011;40769;51.512;5.494;2022-11-04T05:14:28;1.67;;;1.55;;
13807;SDS011;40769;51.512;5.494;2022-11-04T05:16:54;2.28;;;1.60;;
13807;SDS011;40769;51.512;5.494;2022-11-04T05:19:19;1.98;;;1.58;;
13807;SDS011;40769;51.512;5.494;2022-11-04T05:21:45;1.92;;;1.65;;
13807;SDS011;40769;51.512;5.494;2022-11-04T05:24:11;1.63;;;1.40;;
13807;SDS011;40769;51.512;5.494;2022-11-04T05:26:36;2.60;;;1.58;;
13807;SDS011;40769;51.512;5.494;2022-11-04T05:29:02;2.05;;;1.30;;
13807;SDS011;40769;51.512;5.494;2022-11-04T05:31:28;1.65;;;1.20;;
13807;SDS011;40769;51.512;5.494;2022-11-04T05:33:54;2.45;;;1.52;;
13807;SDS011;40769;51.512;5.494;2022-11-04T05:36:20;1.70;;;1.42;;
13807;SDS011;40769;51.512;5.494;2022-11-04T05:38:49;1.38;;;1.27;;
13807;SDS011;40769;51.512;5.494;2022-11-04T05:41:15;1.70;;;1.40;;
13807;SDS011;40769;51.512;5.494;2022-11-04T05:43:50;1.85;;;1.02;;
13807;SDS011;40769;51.512;5.494;2022-11-04T05:46:20;2.05;;;1.77;;
13807;SDS011;40769;51.512;5.494;2022-11-04T05:48:46;3.42;;;2.15;;
13807;SDS011;40769;51.512;5.494;2022-11-04T05:51:13;2.55;;;1.90;;
13807;SDS011;40769;51.512;5.494;2022-11-04T05:53:39;2.05;;;1.65;;
13807;SDS011;40769;51.512;5.494;2022-11-04T05:56:06;1.50;;;1.20;;
13807;SDS011;40769;51.512;5.494;2022-11-04T05:58:32;1.52;;;1.30;;
13807;SDS011;40769;51.512;5.494;2022-11-04T06:03:38;1.45;;;1.30;;
13807;SDS011;40769;51.512;5.494;2022-11-04T06:06:04;1.88;;;1.48;;
13807;SDS011;40769;51.512;5.494;2022-11-04T06:08:29;1.63;;;1.50;;
13807;SDS011;40769;51.512;5.494;2022-11-04T06:10:55;1.38;;;1.27;;
13807;SDS011;40769;51.512;5.494;2022-11-04T06:13:21;1.80;;;1.63;;
13807;SDS011;40769;51.512;5.494;2022-11-04T06:15:47;1.60;;;1.50;;
13807;SDS011;40769;51.512;5.494;2022-11-04T06:18:12;1.58;;;1.30;;
13807;SDS011;40769;51.512;5.494;2022-11-04T06:20:38;1.77;;;1.42;;
13807;SDS011;40769;51.512;5.494;2022-11-04T06:23:03;1.83;;;1.40;;
13807;SDS011;40769;51.512;5.494;2022-11-04T06:25:29;1.17;;;1.02;;
13807;SDS011;40769;51.512;5.494;2022-11-04T06:27:54;2.00;;;1.33;;
13807;SDS011;40769;51.512;5.494;2022-11-04T06:30:20;1.30;;;1.20;;
13807;SDS011;40769;51.512;5.494;2022-11-04T06:32:45;1.77;;;1.50;;
13807;SDS011;40769;51.512;5.494;2022-11-04T06:35:11;2.83;;;2.10;;
13807;SDS011;40769;51.512;5.494;2022-11-04T06:37:37;2.58;;;1.83;;
13807;SDS011;40769;51.512;5.494;2022-11-04T06:40:03;4.07;;;2.58;;
13807;SDS011;40769;51.512;5.494;2022-11-04T06:42:29;2.35;;;1.90;;
13807;SDS011;40769;51.512;5.494;2022-11-04T06:44:54;2.30;;;2.10;;
13807;SDS011;40769;51.512;5.494;2022-11-04T06:47:20;2.50;;;1.83;;
13807;SDS011;40769;51.512;5.494;2022-11-04T06:49:45;2.25;;;1.35;;
13807;SDS011;40769;51.512;5.494;2022-11-04T06:52:11;1.40;;;1.30;;
13807;SDS011;40769;51.512;5.494;2022-11-04T06:54:36;1.92;;;1.52;;
13807;SDS011;40769;51.512;5.494;2022-11-04T06:57:02;1.60;;;1.25;;
13807;SDS011;40769;51.512;5.494;2022-11-04T06:59:28;1.88;;;1.48;;
13807;SDS011;40769;51.512;5.494;2022-11-04T07:01:53;1.50;;;1.35;;
13807;SDS011;40769;51.512;5.494;2022-11-04T07:04:19;1.48;;;1.23;;
13807;SDS011;40769;51.512;5.494;2022-11-04T07:06:44;1.27;;;1.15;;
13807;SDS011;40769;51.512;5.494;2022-11-04T07:09:11;1.60;;;1.50;;
13807;SDS011;40769;51.512;5.494;2022-11-04T07:11:38;1.65;;;1.42;;
13807;SDS011;40769;51.512;5.494;2022-11-04T07:14:03;3.05;;;1.80;;
13807;SDS011;40769;51.512;5.494;2022-11-04T07:16:29;1.80;;;1.48;;
13807;SDS011;40769;51.512;5.494;2022-11-04T07:18:54;1.58;;;1.38;;
13807;SDS011;40769;51.512;5.494;2022-11-04T07:21:20;1.52;;;1.42;;
13807;SDS011;40769;51.512;5.494;2022-11-04T07:23:46;2.17;;;1.50;;
13807;SDS011;40769;51.512;5.494;2022-11-04T07:26:12;2.40;;;2.08;;
13807;SDS011;40769;51.512;5.494;2022-11-04T07:28:38;1.88;;;1.77;;
13807;SDS011;40769;51.512;5.494;2022-11-04T07:31:04;1.75;;;1.60;;
13807;SDS011;40769;51.512;5.494;2022-11-04T07:33:32;2.10;;;1.90;;
13807;SDS011;40769;51.512;5.494;2022-11-04T07:35:58;1.98;;;1.85;;
13807;SDS011;40769;51.512;5.494;2022-11-04T07:38:27;2.38;;;2.17;;
13807;SDS011;40769;51.512;5.494;2022-11-04T07:40:52;2.78;;;2.10;;
13807;SDS011;40769;51.512;5.494;2022-11-04T07:43:18;3.13;;;2.60;;
13807;SDS011;40769;51.512;5.494;2022-11-04T07:45:43;2.22;;;2.03;;
13807;SDS011;40769;51.512;5.494;2022-11-04T07:48:09;2.13;;;1.92;;
13807;SDS011;40769;51.512;5.494;2022-11-04T07:50:37;1.80;;;1.70;;
13807;SDS011;40769;51.512;5.494;2022-11-04T07:53:04;2.25;;;2.00;;
13807;SDS011;40769;51.512;5.494;2022-11-04T07:55:29;2.38;;;1.90;;
13807;SDS011;40769;51.512;5.494;2022-11-04T07:57:55;2.20;;;1.90;;
13807;SDS011;40769;51.512;5.494;2022-11-04T08:00:20;2.15;;;1.85;;
13807;SDS011;40769;51.512;5.494;2022-11-04T08:02:46;3.22;;;1.80;;
13807;SDS011;40769;51.512;5.494;2022-11-04T08:05:14;2.22;;;1.73;;
13807;SDS011;40769;51.512;5.494;2022-11-04T08:07:40;2.88;;;1.73;;
13807;SDS011;40769;51.512;5.494;2022-11-04T08:10:06;2.95;;;1.95;;
13807;SDS011;40769;51.512;5.494;2022-11-04T08:12:32;1.58;;;1.48;;
13807;SDS011;40769;51.512;5.494;2022-11-04T08:14:58;1.73;;;1.60;;
13807;SDS011;40769;51.512;5.494;2022-11-04T08:17:24;1.95;;;1.80;;
13807;SDS011;40769;51.512;5.494;2022-11-04T08:19:50;3.10;;;2.08;;
13807;SDS011;40769;51.512;5.494;2022-11-04T08:22:15;2.67;;;2.47;;
13807;SDS011;40769;51.512;5.494;2022-11-04T08:24:41;2.42;;;1.77;;
13807;SDS011;40769;51.512;5.494;2022-11-04T08:27:07;1.80;;;1.60;;
13807;SDS011;40769;51.512;5.494;2022-11-04T08:29:34;1.90;;;1.67;;
13807;SDS011;40769;51.512;5.494;2022-11-04T08:32:00;2.85;;;2.13;;
13807;SDS011;40769;51.512;5.494;2022-11-04T08:34:26;2.58;;;2.05;;
13807;SDS011;40769;51.512;5.494;2022-11-04T08:36:51;2.05;;;1.70;;
13807;SDS011;40769;51.512;5.494;2022-11-04T08:39:17;3.13;;;2.03;;
13807;SDS011;40769;51.512;5.494;2022-11-04T08:41:43;2.42;;;1.95;;
13807;SDS011;40769;51.512;5.494;2022-11-04T08:44:10;2.30;;;1.60;;
13807;SDS011;40769;51.512;5.494;2022-11-04T08:46:39;1.88;;;1.60;;
13807;SDS011;40769;51.512;5.494;2022-11-04T08:49:06;2.85;;;1.70;;
13807;SDS011;40769;51.512;5.494;2022-11-04T08:51:33;2.03;;;1.40;;
13807;SDS011;40769;51.512;5.494;2022-11-04T08:54:01;2.22;;;1.88;;
13807;SDS011;40769;51.512;5.494;2022-11-04T08:56:29;2.22;;;1.75;;
13807;SDS011;40769;51.512;5.494;2022-11-04T08:58:57;1.70;;;1.60;;
13807;SDS011;40769;51.512;5.494;2022-11-04T09:01:24;2.72;;;1.90;;
13807;SDS011;40769;51.512;5.494;2022-11-04T09:03:51;2.10;;;1.88;;
13807;SDS011;40769;51.512;5.494;2022-11-04T09:06:21;2.35;;;2.03;;
13807;SDS011;40769;51.512;5.494;2022-11-04T09:08:49;2.45;;;1.92;;
13807;SDS011;40769;51.512;5.494;2022-11-04T09:11:16;2.80;;;2.13;;
13807;SDS011;40769;51.512;5.494;2022-11-04T09:13:42;3.45;;;1.65;;
13807;SDS011;40769;51.512;5.494;2022-11-04T09:16:09;1.70;;;1.60;;
13807;SDS011;40769;51.512;5.494;2022-11-04T09:18:36;2.55;;;1.88;;
13807;SDS011;40769;51.512;5.494;2022-11-04T09:21:02;2.55;;;2.00;;
13807;SDS011;40769;51.512;5.494;2022-11-04T09:23:29;2.40;;;1.92;;
13807;SDS011;40769;51.512;5.494;2022-11-04T09:25:55;2.75;;;1.77;;
13807;SDS011;40769;51.512;5.494;2022-11-04T09:28:22;2.10;;;1.90;;
13807;SDS011;40769;51.512;5.494;2022-11-04T09:30:48;2.42;;;1.95;;
13807;SDS011;40769;51.512;5.494;2022-11-04T09:33:14;2.20;;;1.98;;
13807;SDS011;40769;51.512;5.494;2022-11-04T09:35:40;2.25;;;1.73;;
13807;SDS011;40769;51.512;5.494;2022-11-04T09:38:06;3.20;;;2.10;;
13807;SDS011;40769;51.512;5.494;2022-11-04T09:40:32;2.33;;;2.00;;
13807;SDS011;40769;51.512;5.494;2022-11-04T09:45:46;2.05;;;1.85;;
13807;SDS011;40769;51.512;5.494;2022-11-04T09:48:15;5.03;;;2.10;;
13807;SDS011;40769;51.512;5.494;2022-11-04T09:50:56;2.72;;;1.92;;
13807;SDS011;40769;51.512;5.494;2022-11-04T09:53:37;2.13;;;1.90;;
13807;SDS011;40769;51.512;5.494;2022-11-04T09:56:14;3.35;;;2.05;;
13807;SDS011;40769;51.512;5.494;2022-11-04T09:59:00;2.10;;;1.90;;
13807;SDS011;40769;51.512;5.494;2022-11-04T10:01:37;2.70;;;2.47;;
13807;SDS011;40769;51.512;5.494;2022-11-04T10:04:41;3.55;;;2.65;;
13807;SDS011;40769;51.512;5.494;2022-11-04T10:07:50;3.70;;;2.60;;
13807;SDS011;40769;51.512;5.494;2022-11-04T10:10:42;3.65;;;2.20;;
13807;SDS011;40769;51.512;5.494;2022-11-04T10:19:45;2.00;;;1.80;;
13807;SDS011;40769;51.512;5.494;2022-11-04T10:22:25;2.10;;;1.90;;
13807;SDS011;40769;51.512;5.494;2022-11-04T10:25:04;3.90;;;2.47;;
13807;SDS011;40769;51.512;5.494;2022-11-04T10:27:43;4.28;;;3.25;;
13807;SDS011;40769;51.512;5.494;2022-11-04T10:35:29;4.72;;;2.50;;
13807;SDS011;40769;51.512;5.494;2022-11-04T10:40:43;2.80;;;2.50;;
13807;SDS011;40769;51.512;5.494;2022-11-04T10:43:12;4.68;;;3.10;;
13807;SDS011;40769;51.512;5.494;2022-11-04T10:46:04;3.47;;;2.50;;
13807;SDS011;40769;51.512;5.494;2022-11-04T10:48:33;3.55;;;2.67;;
13807;SDS011;40769;51.512;5.494;2022-11-04T10:51:04;2.28;;;2.08;;
13807;SDS011;40769;51.512;5.494;2022-11-04T10:53:30;5.53;;;3.45;;
13807;SDS011;40769;51.512;5.494;2022-11-04T10:58:27;4.57;;;3.60;;
13807;SDS011;40769;51.512;5.494;2022-11-04T11:00:59;5.63;;;4.30;;
13807;SDS011;40769;51.512;5.494;2022-11-04T11:03:49;5.95;;;4.68;;
13807;SDS011;40769;51.512;5.494;2022-11-04T11:08:46;4.78;;;3.70;;
13807;SDS011;40769;51.512;5.494;2022-11-04T11:11:13;5.78;;;4.82;;
13807;SDS011;40769;51.512;5.494;2022-11-04T11:13:41;6.50;;;5.75;;
13807;SDS011;40769;51.512;5.494;2022-11-04T11:18:44;4.45;;;3.53;;
13807;SDS011;40769;51.512;5.494;2022-11-04T11:21:48;4.05;;;3.60;;
13807;SDS011;40769;51.512;5.494;2022-11-04T11:24:23;6.15;;;5.30;;
13807;SDS011;40769;51.512;5.494;2022-11-04T11:26:51;6.40;;;5.05;;
13807;SDS011;40769;51.512;5.494;2022-11-04T11:29:21;6.57;;;5.03;;
13807;SDS011;40769;51.512;5.494;2022-11-04T11:31:47;6.15;;;5.25;;
13807;SDS011;40769;51.512;5.494;2022-11-04T11:34:36;7.63;;;5.90;;
13807;SDS011;40769;51.512;5.494;2022-11-04T11:37:02;6.25;;;4.72;;
13807;SDS011;40769;51.512;5.494;2022-11-04T11:39:30;4.80;;;4.35;;
13807;SDS011;40769;51.512;5.494;2022-11-04T11:44:40;5.95;;;4.45;;
13807;SDS011;40769;51.512;5.494;2022-11-04T11:52:43;4.53;;;3.97;;
13807;SDS011;40769;51.512;5.494;2022-11-04T11:55:26;5.38;;;4.88;;
13807;SDS011;40769;51.512;5.494;2022-11-04T12:00:52;6.75;;;6.15;;
13807;SDS011;40769;51.512;5.494;2022-11-04T12:03:20;7.40;;;6.15;;
13807;SDS011;40769;51.512;5.494;2022-11-04T12:25:29;4.95;;;4.55;;
13807;SDS011;40769;51.512;5.494;2022-11-04T12:36:41;4.30;;;3.90;;
13807;SDS011;40769;51.512;5.494;2022-11-04T12:44:44;5.10;;;4.60;;
13807;SDS011;40769;51.512;5.494;2022-11-04T12:47:36;5.15;;;4.65;;
13807;SDS011;40769;51.512;5.494;2022-11-04T12:56:06;6.35;;;4.95;;
13807;SDS011;40769;51.512;5.494;2022-11-04T13:01:37;4.65;;;4.10;;
13807;SDS011;40769;51.512;5.494;2022-11-04T13:04:16;4.30;;;3.90;;
13807;SDS011;40769;51.512;5.494;2022-11-04T13:06:56;5.72;;;5.03;;
13807;SDS011;40769;51.512;5.494;2022-11-04T13:11:58;5.93;;;5.32;;
13807;SDS011;40769;51.512;5.494;2022-11-04T13:17:40;3.88;;;3.58;;
13807;SDS011;40769;51.512;5.494;2022-11-04T13:22:43;6.93;;;4.90;;
13807;SDS011;40769;51.512;5.494;2022-11-04T13:27:53;4.85;;;4.32;;
13807;SDS011;40769;51.512;5.494;2022-11-04T13:30:22;5.28;;;4.78;;
13807;SDS011;40769;51.512;5.494;2022-11-04T13:35:29;8.05;;;4.57;;
13807;SDS011;40769;51.512;5.494;2022-11-04T13:38:10;4.68;;;4.28;;
13807;SDS011;40769;51.512;5.494;2022-11-04T13:41:03;4.38;;;3.97;;
13807;SDS011;40769;51.512;5.494;2022-11-04T13:43:40;4.47;;;3.75;;
13807;SDS011;40769;51.512;5.494;2022-11-04T13:46:17;6.85;;;3.95;;
13807;SDS011;40769;51.512;5.494;2022-11-04T13:51:35;5.00;;;3.85;;
13807;SDS011;40769;51.512;5.494;2022-11-04T13:54:03;5.30;;;4.13;;
13807;SDS011;40769;51.512;5.494;2022-11-04T14:01:40;5.78;;;5.10;;
13807;SDS011;40769;51.512;5.494;2022-11-04T14:06:50;4.78;;;4.10;;
13807;SDS011;40769;51.512;5.494;2022-11-04T14:09:22;4.45;;;4.05;;
13807;SDS011;40769;51.512;5.494;2022-11-04T14:14:35;5.20;;;4.70;;
13807;SDS011;40769;51.512;5.494;2022-11-04T14:17:02;5.78;;;5.18;;
13807;SDS011;40769;51.512;5.494;2022-11-04T14:22:24;4.05;;;3.65;;
13807;SDS011;40769;51.512;5.494;2022-11-04T14:24:55;6.25;;;4.97;;
13807;SDS011;40769;51.512;5.494;2022-11-04T14:27:43;6.05;;;5.50;;
13807;SDS011;40769;51.512;5.494;2022-11-04T14:33:18;4.78;;;4.35;;
13807;SDS011;40769;51.512;5.494;2022-11-04T14:35:46;5.15;;;4.65;;
13807;SDS011;40769;51.512;5.494;2022-11-04T14:40:49;5.78;;;5.10;;
13807;SDS011;40769;51.512;5.494;2022-11-04T14:43:19;5.60;;;5.10;;
13807;SDS011;40769;51.512;5.494;2022-11-04T14:45:55;5.18;;;4.78;;
13807;SDS011;40769;51.512;5.494;2022-11-04T14:48:23;4.65;;;4.25;;
13807;SDS011;40769;51.512;5.494;2022-11-04T14:50:51;3.83;;;3.53;;
13807;SDS011;40769;51.512;5.494;2022-11-04T14:56:01;5.75;;;5.25;;
13807;SDS011;40769;51.512;5.494;2022-11-04T14:58:56;5.78;;;4.97;;
13807;SDS011;40769;51.512;5.494;2022-11-04T15:01:27;5.47;;;4.90;;
13807;SDS011;40769;51.512;5.494;2022-11-04T15:03:55;4.00;;;3.70;;
13807;SDS011;40769;51.512;5.494;2022-11-04T15:06:28;4.03;;;3.72;;
13807;SDS011;40769;51.512;5.494;2022-11-04T15:08:54;5.60;;;4.57;;
13807;SDS011;40769;51.512;5.494;2022-11-04T15:11:27;4.85;;;4.45;;
13807;SDS011;40769;51.512;5.494;2022-11-04T15:14:14;5.55;;;4.63;;
13807;SDS011;40769;51.512;5.494;2022-11-04T15:16:40;3.50;;;3.20;;
13807;SDS011;40769;51.512;5.494;2022-11-04T15:19:09;5.38;;;4.93;;
13807;SDS011;40769;51.512;5.494;2022-11-04T15:21:38;5.38;;;4.97;;
13807;SDS011;40769;51.512;5.494;2022-11-04T15:24:05;5.82;;;5.22;;
13807;SDS011;40769;51.512;5.494;2022-11-04T15:26:38;4.13;;;3.72;;
13807;SDS011;40769;51.512;5.494;2022-11-04T15:29:08;4.55;;;4.15;;
13807;SDS011;40769;51.512;5.494;2022-11-04T15:31:37;3.28;;;3.03;;
13807;SDS011;40769;51.512;5.494;2022-11-04T15:34:14;4.13;;;3.10;;
13807;SDS011;40769;51.512;5.494;2022-11-04T15:36:41;4.35;;;3.60;;
13807;SDS011;40769;51.512;5.494;2022-11-04T15:39:11;3.10;;;2.80;;
13807;SDS011;40769;51.512;5.494;2022-11-04T15:41:41;3.42;;;2.80;;
13807;SDS011;40769;51.512;5.494;2022-11-04T15:44:28;3.03;;;2.72;;
13807;SDS011;40769;51.512;5.494;2022-11-04T15:47:38;2.60;;;2.40;;
13807;SDS011;40769;51.512;5.494;2022-11-04T15:49:48;2.75;;;2.53;;
13807;SDS011;40769;51.512;5.494;2022-11-04T15:52:22;2.83;;;2.40;;
13807;SDS011;40769;51.512;5.494;2022-11-04T15:54:51;2.20;;;2.00;;
13807;SDS011;40769;51.512;5.494;2022-11-04T15:57:21;2.38;;;2.17;;
13807;SDS011;40769;51.512;5.494;2022-11-04T16:02:45;1.77;;;1.65;;
13807;SDS011;40769;51.512;5.494;2022-11-04T16:05:24;2.00;;;1.77;;
13807;SDS011;40769;51.512;5.494;2022-11-04T16:07:52;2.13;;;1.65;;
13807;SDS011;40769;51.512;5.494;2022-11-04T16:12:54;1.65;;;1.52;;
13807;SDS011;40769;51.512;5.494;2022-11-04T16:15:37;1.92;;;1.33;;
13807;SDS011;40769;51.512;5.494;2022-11-04T16:18:06;1.88;;;1.70;;
13807;SDS011;40769;51.512;5.494;2022-11-04T16:20:46;2.03;;;1.48;;
13807;SDS011;40769;51.512;5.494;2022-11-04T16:23:13;2.30;;;1.70;;
13807;SDS011;40769;51.512;5.494;2022-11-04T16:25:43;1.65;;;1.50;;
13807;SDS011;40769;51.512;5.494;2022-11-04T16:28:18;1.85;;;1.33;;
13807;SDS011;40769;51.512;5.494;2022-11-04T16:30:57;2.20;;;1.20;;
13807;SDS011;40769;51.512;5.494;2022-11-04T16:33:25;1.42;;;1.20;;
13807;SDS011;40769;51.512;5.494;2022-11-04T16:35:50;1.75;;;1.17;;
13807;SDS011;40769;51.512;5.494;2022-11-04T16:38:17;1.48;;;1.35;;
13807;SDS011;40769;51.512;5.494;2022-11-04T16:40:43;1.73;;;1.50;;
13807;SDS011;40769;51.512;5.494;2022-11-04T16:43:11;2.60;;;1.60;;
13807;SDS011;40769;51.512;5.494;2022-11-04T16:45:38;1.58;;;1.48;;
13807;SDS011;40769;51.512;5.494;2022-11-04T16:48:06;2.08;;;1.48;;
13807;SDS011;40769;51.512;5.494;2022-11-04T16:50:34;1.98;;;1.52;;
13807;SDS011;40769;51.512;5.494;2022-11-04T16:53:00;1.45;;;1.33;;
13807;SDS011;40769;51.512;5.494;2022-11-04T16:55:27;2.22;;;1.27;;
13807;SDS011;40769;51.512;5.494;2022-11-04T16:57:55;1.90;;;1.15;;
13807;SDS011;40769;51.512;5.494;2022-11-04T17:00:24;1.75;;;1.35;;
13807;SDS011;40769;51.512;5.494;2022-11-04T17:02:51;1.13;;;1.00;;
13807;SDS011;40769;51.512;5.494;2022-11-04T17:05:17;1.35;;;1.25;;
13807;SDS011;40769;51.512;5.494;2022-11-04T17:07:43;1.02;;;0.90;;
13807;SDS011;40769;51.512;5.494;2022-11-04T17:10:14;1.15;;;0.90;;
13807;SDS011;40769;51.512;5.494;2022-11-04T17:12:47;1.30;;;1.10;;
13807;SDS011;40769;51.512;5.494;2022-11-04T17:15:13;1.50;;;1.30;;
13807;SDS011;40769;51.512;5.494;2022-11-04T17:17:39;1.10;;;1.00;;
13807;SDS011;40769;51.512;5.494;2022-11-04T17:20:06;1.50;;;1.40;;
13807;SDS011;40769;51.512;5.494;2022-11-04T17:22:35;1.80;;;1.50;;
13807;SDS011;40769;51.512;5.494;2022-11-04T17:25:01;1.52;;;1.40;;
13807;SDS011;40769;51.512;5.494;2022-11-04T17:27:27;1.70;;;1.30;;
13807;SDS011;40769;51.512;5.494;2022-11-04T17:29:53;2.25;;;1.70;;
13807;SDS011;40769;51.512;5.494;2022-11-04T17:32:19;2.20;;;2.00;;
13807;SDS011;40769;51.512;5.494;2022-11-04T17:34:44;2.58;;;2.00;;
13807;SDS011;40769;51.512;5.494;2022-11-04T17:37:13;2.35;;;2.08;;
13807;SDS011;40769;51.512;5.494;2022-11-04T17:39:39;2.60;;;2.13;;
13807;SDS011;40769;51.512;5.494;2022-11-04T17:42:05;3.70;;;2.85;;
13807;SDS011;40769;51.512;5.494;2022-11-04T17:44:49;2.28;;;2.08;;
13807;SDS011;40769;51.512;5.494;2022-11-04T17:47:15;4.05;;;3.15;;
13807;SDS011;40769;51.512;5.494;2022-11-04T17:49:40;3.05;;;2.53;;
13807;SDS011;40769;51.512;5.494;2022-11-04T17:52:06;2.17;;;1.98;;
13807;SDS011;40769;51.512;5.494;2022-11-04T17:54:32;1.67;;;1.58;;
13807;SDS011;40769;51.512;5.494;2022-11-04T17:56:58;2.75;;;1.88;;